Ikke nødvendig med spesiell oppmerksomhet.   -   Ingen advarsler for øyeblikket

METAR Rapporter

 

ENZV - Stavanger
Oppdatert: 18/06/2019 19:20
Few Clouds
Few Clouds
 Vind fra SSV
Vind: SSV 22 km/h
Temperatur: 16°C
Duggpunkt: 10°C
Fuktighet: 68%
Barometer: 1012 hPa
Skyet: Few Clouds
Sikt: 10 km
Cloud details: Few Clouds 610 m
2019/06/18 17:20 ENZV 181720Z 20012KT 9999 FEW020TCU 16/10 Q1012 NOSIG
ENBR - Bergen
Oppdatert: 18/06/2019 19:20
hovedsaklig skyet
hovedsaklig skyet
 Vind fra S
Vind: S 26 km/h
Temperatur: 14°C
Duggpunkt: 11°C
Fuktighet: 82%
Barometer: 1010 hPa
Skyet: hovedsaklig skyet
Sikt: 10 km
Cloud details: Few Clouds 396 m
Few Clouds 914 m
hovedsaklig skyet 2134 m
2019/06/18 17:20 ENBR 181720Z 19014KT 9999 FEW013 FEW030TCU BKN070 14/11 Q1010 NOSIG RMK WIND 1200FT 21019G31KT
 
ENHD - Haugesund
Oppdatert: 18/06/2019 19:20
Few Clouds
Few Clouds
 Vind fra SSV
Vind: SSV 24 km/h
Temperatur: 15°C
Duggpunkt: 11°C
Fuktighet: 77%
Barometer: 1011 hPa
Skyet: Few Clouds
Sikt: 10 km
Cloud details: Few Clouds 183 m
2019/06/18 17:20 ENHD 181720Z 20013KT 9999 FEW006 15/11 Q1011
ENCN - Kristiansand
Oppdatert: 18/06/2019 19:20
Few Clouds
Few Clouds
 Vind fra S
Vind: S 15 km/h
Temperatur: 16°C
Duggpunkt: 15°C
Fuktighet: 94%
Barometer: 1012 hPa
Skyet: Few Clouds
Sikt: 10 km
Cloud details: Few Clouds 975 m
2019/06/18 17:20 ENCN 181720Z 18008KT 9999 FEW032 16/15 Q1012
 
ENBO - Bodø
Oppdatert: 18/06/2019 19:20
hovedsaklig skyet
hovedsaklig skyet
 Vind fra NNØ
Vind: NNØ 11 km/h
Temperatur: 13°C
Duggpunkt: 6°C
Fuktighet: 63%
Barometer: 1009 hPa
Skyet: hovedsaklig skyet
Sikt: 10 km
Cloud details: Few Clouds 1067 m
hovedsaklig skyet 1829 m
2019/06/18 17:20 ENBO 181720Z 02006KT 9999 FEW035 BKN060 13/06 Q1009 BECMG 09010KT
ENKR - Kirkenes
Oppdatert: 18/06/2019 19:20
klart
klart
 Vind fra ØNØ
Vind: ØNØ 15 km/h
Temperatur: 8°C
Vindkjøling: 5°C
Duggpunkt: 2°C
Fuktighet: 66%
Barometer: 1009 hPa
Oversikt: klart
Sikt: greater than 10 km
2019/06/18 17:20 ENKR 181720Z 06008KT CAVOK 08/02 Q1009 RMK WIND 731FT 05010KT
 
ENVA - Trondheim
Oppdatert: 18/06/2019 19:20
Byger i nærheten, delvis skyet
Byger i nærheten, delvis skyet
 Vind fra NNV
Vind: NNV 24 km/h
Temperatur: 16°C
Duggpunkt: 9°C
Fuktighet: 63%
Barometer: 1008 hPa
Oversikt: Nearby Showers
Skyet: delvis skyet
Sikt: 10 km
Cloud details: Few Clouds 1829 m
delvis skyet 3048 m
2019/06/18 17:20 ENVA 181720Z 33013KT 9999 VCSH FEW060CB SCT100 16/09 Q1008 TEMPO TSRA RMK WIND 670FT 33015KT
ENGM - Oslo
Oppdatert: 18/06/2019 19:20
hovedsaklig skyet
hovedsaklig skyet
 Vind fra S
Vind: S 26 km/h
Temperatur: 18°C
Duggpunkt: 10°C
Fuktighet: 60%
Barometer: 1010 hPa
Skyet: hovedsaklig skyet
Sikt: 10 km
Cloud details: Few Clouds 884 m
hovedsaklig skyet 5486 m
2019/06/18 17:20 ENGM 181720Z 18014KT 9999 FEW029 BKN180 18/10 Q1010 NOSIG